createdAt,value
2023-04-02T00:00:20.440Z,-0.79
2023-04-02T00:03:03.864Z,-0.76
2023-04-02T00:05:51.878Z,-0.81
2023-04-02T00:08:41.091Z,-0.87
2023-04-02T00:11:10.701Z,-0.87
2023-04-02T00:13:46.687Z,-0.81
2023-04-02T00:16:24.370Z,-0.83
2023-04-02T00:18:59.242Z,-0.87
2023-04-02T00:21:33.411Z,-0.83
2023-04-02T00:24:08.192Z,-0.89
2023-04-02T00:26:44.161Z,-0.92
2023-04-02T00:29:15.738Z,-1.04
2023-04-02T00:31:49.070Z,-1.01
2023-04-02T00:34:23.556Z,-1.02
2023-04-02T00:36:55.027Z,-0.98
2023-04-02T00:39:27.294Z,-0.93
2023-04-02T00:42:05.253Z,-1.00
2023-04-02T00:44:38.709Z,-1.02
2023-04-02T00:47:20.276Z,-0.96
2023-04-02T00:49:55.460Z,-0.93
2023-04-02T00:52:30.644Z,-1.07
2023-04-02T00:55:07.834Z,-1.09
2023-04-02T00:57:37.349Z,-1.04
2023-04-02T01:00:23.006Z,-1.05
2023-04-02T01:03:30.082Z,-1.04
2023-04-02T01:06:03.270Z,-0.96
2023-04-02T01:08:53.401Z,-1.11
2023-04-02T01:11:43.640Z,-1.12
2023-04-02T01:14:26.244Z,-1.22
2023-04-02T01:17:06.110Z,-1.02
2023-04-02T01:20:13.842Z,-1.00
2023-04-02T01:22:52.942Z,-1.04
2023-04-02T01:25:31.481Z,-1.15
2023-04-02T01:28:11.255Z,-1.25
2023-04-02T01:30:42.511Z,-1.19
2023-04-02T01:33:13.218Z,-1.24
2023-04-02T01:35:51.425Z,-1.13
2023-04-02T01:38:27.422Z,-1.13
2023-04-02T01:41:03.519Z,-1.20
2023-04-02T01:43:44.149Z,-1.17
2023-04-02T01:46:30.331Z,-1.21
2023-04-02T01:49:05.059Z,-1.20
2023-04-02T01:51:36.299Z,-1.29
2023-04-02T01:54:08.864Z,-1.30
2023-04-02T01:56:38.368Z,-1.36
2023-04-02T01:59:11.341Z,-1.39
2023-04-02T02:01:49.517Z,-1.37
2023-04-02T02:04:19.795Z,-1.36
2023-04-02T02:06:49.249Z,-1.35
2023-04-02T02:09:26.642Z,-1.29
2023-04-02T02:11:55.481Z,-1.33
2023-04-02T02:14:27.617Z,-1.35
2023-04-02T02:17:24.221Z,-1.37
2023-04-02T02:19:57.126Z,-1.37
2023-04-02T02:22:32.049Z,-1.45
2023-04-02T02:25:05.502Z,-1.43
2023-04-02T02:27:56.890Z,-1.35
2023-04-02T02:30:31.552Z,-1.48
2023-04-02T02:33:10.131Z,-1.43
2023-04-02T02:35:48.280Z,-1.42
2023-04-02T02:38:54.211Z,-1.52
2023-04-02T02:41:44.279Z,-1.44
2023-04-02T02:44:20.817Z,-1.42
2023-04-02T02:46:55.729Z,-1.40
2023-04-02T02:49:29.904Z,-1.48
2023-04-02T02:52:05.440Z,-1.49
2023-04-02T02:54:49.194Z,-1.54
2023-04-02T02:57:26.277Z,-1.41
2023-04-02T02:59:59.215Z,-1.49
2023-04-02T03:02:30.510Z,-1.55
2023-04-02T03:05:02.936Z,-1.62
2023-04-02T03:07:33.580Z,-1.55
2023-04-02T03:10:14.496Z,-1.56
2023-04-02T03:12:51.424Z,-1.68
2023-04-02T03:15:29.815Z,-1.57
2023-04-02T03:18:04.768Z,-1.58
2023-04-02T03:20:46.791Z,-1.55
2023-04-02T03:23:25.131Z,-1.52
2023-04-02T03:26:03.141Z,-1.58
2023-04-02T03:28:38.465Z,-1.50
2023-04-02T03:31:11.411Z,-1.55
2023-04-02T03:33:45.682Z,-1.60
2023-04-02T03:36:24.465Z,-1.63
2023-04-02T03:39:02.413Z,-1.59
2023-04-02T03:41:40.504Z,-1.66
2023-04-02T03:44:22.848Z,-1.55
2023-04-02T03:46:58.902Z,-1.51
2023-04-02T03:49:38.875Z,-1.62
2023-04-02T03:52:14.619Z,-1.57
2023-04-02T03:54:53.901Z,-1.53
2023-04-02T03:57:32.394Z,-1.52
2023-04-02T04:00:09.353Z,-1.50
2023-04-02T04:02:48.880Z,-1.46
2023-04-02T04:05:29.882Z,-1.46
2023-04-02T04:08:07.840Z,-1.45
2023-04-02T04:10:37.305Z,-1.37
2023-04-02T04:13:14.563Z,-1.40
2023-04-02T04:15:52.539Z,-1.31
2023-04-02T04:18:34.938Z,-1.22
2023-04-02T04:21:22.888Z,-1.30
2023-04-02T04:23:53.511Z,-1.16
2023-04-02T04:26:34.981Z,-1.09
2023-04-02T04:29:19.652Z,-1.07
2023-04-02T04:31:55.839Z,-0.99
2023-04-02T04:34:42.355Z,-0.95
2023-04-02T04:37:25.277Z,-0.94
2023-04-02T04:40:05.381Z,-0.81
2023-04-02T04:42:38.871Z,-0.82
2023-04-02T04:45:31.605Z,-0.85
2023-04-02T04:48:06.521Z,-0.69
2023-04-02T04:50:42.357Z,-0.76
2023-04-02T04:53:21.088Z,-0.62
2023-04-02T04:55:59.699Z,-0.60
2023-04-02T04:58:48.966Z,-0.58
2023-04-02T05:01:25.588Z,-0.49
2023-04-02T05:04:04.954Z,-0.52
2023-04-02T05:06:43.932Z,-0.50
2023-04-02T05:09:23.956Z,-0.32
2023-04-02T05:12:07.198Z,-0.34
2023-04-02T05:14:43.636Z,-0.36
2023-04-02T05:17:20.842Z,-0.29
2023-04-02T05:19:58.014Z,-0.39
2023-04-02T05:22:35.913Z,-0.19
2023-04-02T05:25:21.163Z,-0.11
2023-04-02T05:28:00.102Z,-0.01
2023-04-02T05:30:49.516Z,-0.11
2023-04-02T05:33:28.277Z,0.13
2023-04-02T05:36:04.598Z,0.06
2023-04-02T05:38:41.643Z,0.25
2023-04-02T05:41:26.967Z,0.33
2023-04-02T05:44:08.487Z,0.35
2023-04-02T05:46:46.915Z,0.32
2023-04-02T05:49:25.042Z,0.52
2023-04-02T05:52:01.668Z,0.54
2023-04-02T05:54:39.398Z,0.53
2023-04-02T05:57:14.988Z,0.62
2023-04-02T05:59:52.842Z,0.66
2023-04-02T06:02:30.948Z,0.82
2023-04-02T06:05:04.324Z,0.67
2023-04-02T06:07:47.690Z,0.84
2023-04-02T06:10:24.966Z,0.94
2023-04-02T06:13:03.454Z,1.01
2023-04-02T06:15:39.181Z,1.03
2023-04-02T06:18:20.431Z,0.96
2023-04-02T06:20:51.115Z,1.02
2023-04-02T06:23:31.052Z,1.21
2023-04-02T06:26:09.070Z,0.99
2023-04-02T06:28:47.837Z,1.09
2023-04-02T06:31:33.926Z,1.11
2023-04-02T06:34:08.091Z,1.15
2023-04-02T06:36:36.969Z,1.31
2023-04-02T06:39:18.362Z,1.27
2023-04-02T06:41:47.874Z,1.25
2023-04-02T06:44:43.006Z,1.33
2023-04-02T06:47:48.110Z,1.34
2023-04-02T06:50:32.432Z,1.38
2023-04-02T06:53:12.069Z,1.39
2023-04-02T06:55:48.031Z,1.36
2023-04-02T06:58:21.553Z,1.36
2023-04-02T07:00:53.106Z,1.49
2023-04-02T07:03:35.640Z,1.48
2023-04-02T07:06:21.736Z,1.66
2023-04-02T07:08:52.719Z,1.67
2023-04-02T07:11:24.259Z,1.66
2023-04-02T07:13:55.852Z,1.73
2023-04-02T07:16:28.077Z,1.71
2023-04-02T07:18:59.996Z,1.91
2023-04-02T07:21:33.045Z,2.08
2023-04-02T07:24:03.713Z,2.18
2023-04-02T07:26:33.454Z,2.39
2023-04-02T07:29:02.619Z,2.53
2023-04-02T07:31:32.167Z,2.63
2023-04-02T07:34:03.118Z,2.76
2023-04-02T07:36:35.530Z,2.74
2023-04-02T07:39:06.139Z,2.74
2023-04-02T07:41:35.358Z,2.55
2023-04-02T07:44:06.504Z,2.56
2023-04-02T07:46:37.787Z,2.60
2023-04-02T07:49:09.149Z,2.58
2023-04-02T07:51:38.331Z,2.65
2023-04-02T07:54:10.113Z,2.79
2023-04-02T07:56:44.595Z,2.84
2023-04-02T07:59:24.011Z,2.79
2023-04-02T08:01:59.295Z,2.83
2023-04-02T08:04:30.507Z,3.02
2023-04-02T08:06:59.712Z,3.29
2023-04-02T08:09:29.301Z,3.46
2023-04-02T08:11:58.251Z,3.51
2023-04-02T08:14:27.003Z,3.51
2023-04-02T08:16:57.566Z,3.39
2023-04-02T08:19:30.114Z,3.42
2023-04-02T08:22:00.233Z,3.17
2023-04-02T08:24:30.800Z,3.28
2023-04-02T08:27:02.490Z,3.30
2023-04-02T08:29:32.469Z,3.33
2023-04-02T08:32:01.537Z,3.20
2023-04-02T08:34:30.496Z,3.30
2023-04-02T08:37:00.936Z,3.38
2023-04-02T08:39:33.131Z,3.36
2023-04-02T08:42:15.868Z,3.40
2023-04-02T08:44:56.362Z,3.26
2023-04-02T08:47:29.943Z,3.15
2023-04-02T08:50:06.564Z,3.13
2023-04-02T08:52:40.208Z,3.13
2023-04-02T08:55:27.053Z,3.12
2023-04-02T08:58:04.468Z,3.11
2023-04-02T09:00:40.176Z,3.26
2023-04-02T09:03:18.958Z,3.30
2023-04-02T09:05:50.960Z,3.50
2023-04-02T09:08:24.663Z,3.67
2023-04-02T09:11:01.684Z,4.08
2023-04-02T09:13:34.291Z,4.09
2023-04-02T09:16:13.031Z,4.04
2023-04-02T09:18:42.581Z,4.00
2023-04-02T09:21:36.019Z,4.18
2023-04-02T09:24:06.573Z,4.01
2023-04-02T09:26:36.990Z,3.85
2023-04-02T09:29:41.120Z,3.77
2023-04-02T09:32:29.655Z,4.02
2023-04-02T09:35:22.984Z,4.30
2023-04-02T09:38:29.133Z,4.30
2023-04-02T09:41:03.781Z,4.28
2023-04-02T09:43:35.499Z,4.17
2023-04-02T09:46:18.422Z,4.33
2023-04-02T09:48:55.397Z,4.23
2023-04-02T09:51:27.933Z,4.17
2023-04-02T09:54:14.144Z,4.22
2023-04-02T09:57:02.250Z,4.43
2023-04-02T09:59:31.127Z,4.50
2023-04-02T10:02:04.606Z,4.29
2023-04-02T10:04:38.908Z,4.59
2023-04-02T10:07:08.353Z,4.65
2023-04-02T10:09:39.711Z,4.79
2023-04-02T10:12:16.403Z,4.79
2023-04-02T10:14:49.730Z,4.79
2023-04-02T10:17:24.451Z,4.59
2023-04-02T10:20:00.055Z,4.62
2023-04-02T10:22:30.064Z,4.64
2023-04-02T10:25:00.739Z,4.41
2023-04-02T10:27:42.674Z,4.40
2023-04-02T10:30:23.205Z,4.18
2023-04-02T10:32:58.759Z,3.78
2023-04-02T10:35:43.635Z,3.93
2023-04-02T10:38:43.064Z,3.90
2023-04-02T10:41:28.146Z,3.79
2023-04-02T10:44:22.442Z,4.03
2023-04-02T10:47:16.768Z,4.51
2023-04-02T10:49:55.762Z,4.35
2023-04-02T10:52:31.923Z,4.37
2023-04-02T10:55:07.415Z,4.09
2023-04-02T10:57:40.755Z,3.93
2023-04-02T11:00:24.098Z,3.98
2023-04-02T11:03:00.230Z,4.16
2023-04-02T11:05:40.326Z,4.30
2023-04-02T11:08:20.121Z,4.62
2023-04-02T11:10:56.906Z,4.86
2023-04-02T11:13:34.935Z,5.10
2023-04-02T11:16:08.456Z,4.84
2023-04-02T11:18:37.574Z,5.15
2023-04-02T11:21:08.985Z,4.96
2023-04-02T11:23:59.655Z,4.42
2023-04-02T11:26:39.402Z,4.53
2023-04-02T11:29:20.216Z,4.60
2023-04-02T11:32:12.417Z,4.60
2023-04-02T11:35:27.444Z,4.21
2023-04-02T11:37:58.344Z,4.30
2023-04-02T11:40:51.497Z,4.20
2023-04-02T11:43:53.245Z,4.14
2023-04-02T11:46:46.536Z,4.30
2023-04-02T11:50:14.070Z,4.60
2023-04-02T11:52:59.802Z,4.62
2023-04-02T11:55:33.475Z,4.32
2023-04-02T11:58:45.027Z,4.37
2023-04-02T12:02:18.774Z,4.35
2023-04-02T12:05:25.327Z,4.65
2023-04-02T12:08:23.409Z,4.75
2023-04-02T12:10:59.828Z,4.71
2023-04-02T12:14:10.516Z,4.64
2023-04-02T12:16:40.239Z,4.51
2023-04-02T12:19:10.964Z,4.46
2023-04-02T12:21:40.058Z,4.37
2023-04-02T12:24:23.206Z,4.18
2023-04-02T12:27:15.671Z,4.13
2023-04-02T12:29:45.051Z,4.14
2023-04-02T12:32:26.632Z,4.07
2023-04-02T12:34:58.971Z,3.81
2023-04-02T12:37:30.819Z,3.89
2023-04-02T12:40:07.278Z,3.79
2023-04-02T12:42:39.045Z,3.84
2023-04-02T12:45:08.965Z,4.08
2023-04-02T12:47:37.770Z,3.95
2023-04-02T12:50:15.046Z,3.77
2023-04-02T12:52:48.142Z,3.76
2023-04-02T12:55:22.068Z,3.92
2023-04-02T12:57:55.867Z,3.86
2023-04-02T13:00:36.754Z,4.04
2023-04-02T13:03:26.609Z,4.24
2023-04-02T13:05:58.720Z,4.02
2023-04-02T13:08:33.210Z,4.34
2023-04-02T13:11:06.488Z,4.42
2023-04-02T13:13:38.346Z,4.44
2023-04-02T13:16:26.238Z,4.42
2023-04-02T13:19:13.813Z,4.40
2023-04-02T13:21:42.861Z,4.36
2023-04-02T13:24:19.269Z,4.26
2023-04-02T13:26:50.516Z,4.23
2023-04-02T13:29:27.603Z,4.07
2023-04-02T13:32:01.303Z,4.14
2023-04-02T13:34:34.058Z,4.15
2023-04-02T13:37:02.749Z,3.99
2023-04-02T13:39:31.613Z,3.81
2023-04-02T13:42:06.592Z,3.98
2023-04-02T13:44:37.614Z,3.95
2023-04-02T13:47:06.455Z,4.02
2023-04-02T13:49:35.324Z,3.90
2023-04-02T13:52:05.417Z,3.91
2023-04-02T13:54:44.652Z,4.14
2023-04-02T13:57:15.794Z,4.39
2023-04-02T13:59:44.545Z,4.16
2023-04-02T14:02:18.969Z,4.12
2023-04-02T14:04:54.726Z,3.99
2023-04-02T14:07:45.275Z,3.74
2023-04-02T14:10:27.849Z,3.64
2023-04-02T14:13:19.839Z,3.69
2023-04-02T14:16:13.567Z,3.62
2023-04-02T14:19:04.379Z,3.82
2023-04-02T14:21:48.329Z,3.90
2023-04-02T14:24:23.630Z,3.88
2023-04-02T14:27:08.301Z,3.71
2023-04-02T14:29:49.714Z,3.94
2023-04-02T14:32:27.219Z,3.78
2023-04-02T14:35:08.659Z,3.86
2023-04-02T14:37:47.410Z,3.87
2023-04-02T14:40:25.839Z,3.72
2023-04-02T14:43:01.948Z,3.55
2023-04-02T14:45:49.488Z,3.49
2023-04-02T14:48:36.637Z,3.37
2023-04-02T14:51:15.302Z,3.47
2023-04-02T14:54:00.432Z,3.60
2023-04-02T14:56:32.441Z,3.54
2023-04-02T14:59:20.976Z,3.64
2023-04-02T15:01:56.597Z,3.20
2023-04-02T15:04:35.034Z,3.27
2023-04-02T15:07:14.854Z,3.19
2023-04-02T15:09:48.755Z,3.31
2023-04-02T15:12:25.095Z,3.39
2023-04-02T15:15:03.570Z,3.51
2023-04-02T15:17:34.282Z,3.39
2023-04-02T15:20:16.091Z,3.30
2023-04-02T15:23:02.005Z,3.11
2023-04-02T15:25:43.844Z,3.08
2023-04-02T15:28:28.003Z,2.95
2023-04-02T15:31:01.225Z,2.82
2023-04-02T15:33:46.146Z,2.97
2023-04-02T15:37:14.348Z,3.37
2023-04-02T15:39:54.809Z,3.53
2023-04-02T15:42:29.076Z,3.45
2023-04-02T15:45:22.312Z,3.13
2023-04-02T15:48:27.646Z,3.02
2023-04-02T15:51:06.378Z,2.95
2023-04-02T15:53:51.961Z,2.65
2023-04-02T15:56:46.571Z,2.65
2023-04-02T15:59:47.536Z,2.58
2023-04-02T16:02:40.727Z,2.61
2023-04-02T16:05:23.122Z,2.32
2023-04-02T16:08:19.166Z,2.21
2023-04-02T16:10:48.053Z,2.29
2023-04-02T16:13:32.667Z,2.13
2023-04-02T16:16:08.486Z,1.99
2023-04-02T16:18:51.870Z,2.21
2023-04-02T16:21:24.778Z,2.10
2023-04-02T16:23:55.225Z,2.15
2023-04-02T16:26:37.967Z,2.19
2023-04-02T16:29:32.009Z,2.24
2023-04-02T16:32:21.231Z,2.15
2023-04-02T16:35:22.208Z,2.13
2023-04-02T16:38:04.402Z,1.93
2023-04-02T16:40:57.115Z,2.01
2023-04-02T16:43:38.656Z,1.98
2023-04-02T16:46:22.554Z,2.13
2023-04-02T16:49:04.293Z,2.06
2023-04-02T16:51:46.578Z,2.06
2023-04-02T16:54:23.810Z,2.07
2023-04-02T16:57:31.584Z,1.96
2023-04-02T17:00:19.069Z,2.00
2023-04-02T17:03:05.182Z,1.99
2023-04-02T17:05:51.822Z,2.02
2023-04-02T17:08:26.116Z,2.02
2023-04-02T17:11:02.629Z,1.93
2023-04-02T17:13:41.661Z,1.83
2023-04-02T17:16:21.879Z,1.84
2023-04-02T17:18:54.369Z,1.87
2023-04-02T17:21:28.035Z,2.05
2023-04-02T17:24:05.655Z,1.78
2023-04-02T17:26:39.082Z,1.78
2023-04-02T17:29:27.976Z,1.65
2023-04-02T17:32:13.395Z,1.60
2023-04-02T17:34:44.024Z,1.60
2023-04-02T17:37:31.005Z,1.42
2023-04-02T17:40:20.048Z,1.56
2023-04-02T17:43:03.356Z,1.51
2023-04-02T17:45:42.997Z,1.60
2023-04-02T17:48:22.076Z,1.63
2023-04-02T17:51:05.560Z,1.62
2023-04-02T17:53:47.184Z,1.65
2023-04-02T17:56:32.594Z,1.60
2023-04-02T17:59:32.167Z,1.61
2023-04-02T18:02:24.442Z,1.48
2023-04-02T18:05:07.784Z,1.23
2023-04-02T18:07:48.745Z,1.19
2023-04-02T18:10:28.317Z,1.03
2023-04-02T18:13:03.217Z,0.98
2023-04-02T18:15:55.666Z,0.97
2023-04-02T18:18:55.103Z,1.07
2023-04-02T18:21:32.928Z,1.08
2023-04-02T18:24:28.692Z,0.99
2023-04-02T18:27:21.561Z,0.99
2023-04-02T18:30:11.997Z,1.02
2023-04-02T18:33:32.250Z,1.04
2023-04-02T18:36:11.671Z,1.08
2023-04-02T18:38:49.025Z,1.13
2023-04-02T18:41:44.042Z,0.95
2023-04-02T18:44:38.751Z,1.01
2023-04-02T18:47:20.613Z,1.08
2023-04-02T18:49:57.876Z,0.92
2023-04-02T18:52:26.683Z,1.05
2023-04-02T18:55:05.585Z,1.10
2023-04-02T18:57:39.204Z,1.00
2023-04-02T19:00:26.693Z,1.09
2023-04-02T19:03:01.430Z,1.02
2023-04-02T19:05:40.787Z,1.04
2023-04-02T19:08:18.474Z,0.88
2023-04-02T19:10:52.210Z,0.88
2023-04-02T19:13:22.077Z,0.87
2023-04-02T19:16:37.397Z,0.70
2023-04-02T19:19:18.695Z,0.72
2023-04-02T19:22:09.077Z,0.79
2023-04-02T19:25:04.050Z,0.78
2023-04-02T19:27:53.282Z,0.79
2023-04-02T19:30:53.928Z,0.85
2023-04-02T19:33:38.618Z,0.73
2023-04-02T19:36:35.977Z,0.71
2023-04-02T19:39:33.107Z,0.81
2023-04-02T19:42:13.190Z,0.94
2023-04-02T19:44:49.604Z,0.80
2023-04-02T19:47:19.747Z,1.01
2023-04-02T19:49:49.678Z,0.86
2023-04-02T19:52:19.493Z,0.86
2023-04-02T19:54:49.464Z,0.86
2023-04-02T19:57:18.560Z,0.87
2023-04-02T19:59:47.572Z,0.85
2023-04-02T20:02:16.362Z,0.79
2023-04-02T20:04:45.032Z,0.81
2023-04-02T20:07:13.741Z,0.89
2023-04-02T20:09:42.636Z,1.00
2023-04-02T20:12:14.277Z,0.97
2023-04-02T20:14:42.903Z,1.04
2023-04-02T20:17:11.737Z,1.11
2023-04-02T20:19:40.853Z,1.06
2023-04-02T20:22:09.632Z,1.16
2023-04-02T20:24:38.301Z,1.23
2023-04-02T20:27:06.963Z,1.07
2023-04-02T20:29:37.043Z,1.05
2023-04-02T20:32:05.847Z,1.13
2023-04-02T20:34:34.615Z,1.07
2023-04-02T20:37:03.488Z,1.16
2023-04-02T20:39:32.113Z,1.23
2023-04-02T20:42:02.969Z,1.06
2023-04-02T20:44:31.973Z,1.17
2023-04-02T20:47:04.475Z,1.10
2023-04-02T20:49:33.230Z,1.14
2023-04-02T20:52:02.036Z,1.01
2023-04-02T20:54:30.652Z,0.99
2023-04-02T20:56:59.369Z,0.85
2023-04-02T20:59:27.949Z,0.82
2023-04-02T21:01:56.746Z,0.72
2023-04-02T21:04:28.386Z,0.74
2023-04-02T21:06:57.618Z,0.75
2023-04-02T21:09:26.283Z,0.79
2023-04-02T21:11:55.064Z,0.64
2023-04-02T21:14:24.059Z,0.72
2023-04-02T21:16:52.682Z,0.53
2023-04-02T21:19:21.252Z,0.53
2023-04-02T21:21:51.198Z,0.62
2023-04-02T21:24:19.793Z,0.78
2023-04-02T21:26:48.827Z,0.67
2023-04-02T21:29:17.643Z,0.62
2023-04-02T21:31:46.393Z,0.64
2023-04-02T21:34:17.441Z,0.68
2023-04-02T21:36:48.115Z,0.64
2023-04-02T21:39:21.249Z,0.62
2023-04-02T21:41:53.106Z,0.75
2023-04-02T21:44:24.291Z,0.66
2023-04-02T21:46:54.208Z,0.55
2023-04-02T21:49:26.163Z,0.52
2023-04-02T21:51:55.005Z,0.60
2023-04-02T21:54:25.093Z,0.62
2023-04-02T21:56:53.788Z,0.55
2023-04-02T21:59:22.537Z,0.55
2023-04-02T22:01:53.447Z,0.46
2023-04-02T22:04:24.168Z,0.44
2023-04-02T22:06:54.422Z,0.53
2023-04-02T22:09:27.646Z,0.41
2023-04-02T22:11:59.874Z,0.40
2023-04-02T22:14:29.446Z,0.39
2023-04-02T22:16:58.791Z,0.36
2023-04-02T22:19:28.394Z,0.35
2023-04-02T22:21:57.544Z,0.36
2023-04-02T22:24:27.561Z,0.36
2023-04-02T22:26:56.671Z,0.40
2023-04-02T22:29:25.459Z,0.39
2023-04-02T22:31:54.081Z,0.38
2023-04-02T22:34:22.763Z,0.44
2023-04-02T22:36:53.118Z,0.37
2023-04-02T22:39:21.806Z,0.32
2023-04-02T22:41:51.745Z,0.40
2023-04-02T22:44:20.375Z,0.41
2023-04-02T22:46:49.035Z,0.27
2023-04-02T22:49:19.335Z,0.27
2023-04-02T22:51:48.381Z,0.35
2023-04-02T22:54:17.238Z,0.39
2023-04-02T22:56:45.919Z,0.34
2023-04-02T22:59:16.245Z,0.35
2023-04-02T23:01:45.067Z,0.35
2023-04-02T23:04:13.786Z,0.28
2023-04-02T23:06:42.505Z,0.20
2023-04-02T23:09:11.490Z,0.25
2023-04-02T23:11:40.052Z,0.29
2023-04-02T23:14:08.687Z,0.18
2023-04-02T23:16:38.814Z,0.29
2023-04-02T23:19:07.446Z,0.17
2023-04-02T23:21:36.257Z,0.03
2023-04-02T23:24:05.137Z,0.05
2023-04-02T23:26:34.143Z,-0.06
2023-04-02T23:29:03.095Z,0.03
2023-04-02T23:31:33.724Z,0.01
2023-04-02T23:34:04.399Z,-0.03
2023-04-02T23:36:35.943Z,-0.15
2023-04-02T23:39:09.450Z,-0.24
2023-04-02T23:41:39.919Z,-0.24
2023-04-02T23:44:09.564Z,-0.24
2023-04-02T23:46:38.732Z,-0.29
2023-04-02T23:49:11.443Z,-0.41
2023-04-02T23:51:40.805Z,-0.31
2023-04-02T23:54:09.491Z,-0.24
2023-04-02T23:56:38.145Z,-0.32
2023-04-02T23:59:06.977Z,-0.42
